Time;durP1;ratioP1;P1;durP2;ratioP2;P2;SDS_P1;SDS_P2;PMS_P1;PMS_P2;Temp;Humidity;BMP_temperature;BMP_pressure;BME280_temperature;BME280_humidity;BME280_pressure;Samples;Min_cycle;Max_cycle;Signal;HPM_P1;HPM_P2
2023/01/03 00:03:58;;;;;;;0.55;0.55;;;14.20;52.80;;;13.23;51.72;101809.41;12250430;19;20016;-84
2023/01/03 00:08:00;;;;;;;1.23;0.70;;;14.10;52.70;;;13.05;51.64;101792.78;12250977;19;20047;-83
2023/01/03 00:16:22;;;;;;;0.70;0.70;;;14.00;52.70;;;13.10;51.79;101825.84;12251875;19;20007;-84
2023/01/03 00:20:24;;;;;;;1.00;0.77;;;14.00;52.70;;;12.83;51.70;101779.88;12245280;19;20015;-84
2023/01/03 00:24:26;;;;;;;0.77;0.70;;;14.00;52.80;;;13.04;51.72;101827.81;12249925;19;20086;-84
2023/01/03 00:28:27;;;;;;;2.45;0.98;;;14.00;52.80;;;13.06;51.88;101838.22;12247796;19;20023;-83
2023/01/03 00:32:29;;;;;;;1.33;0.70;;;14.00;52.80;;;13.03;51.78;101841.84;12248879;19;20387;-84
2023/01/03 00:36:31;;;;;;;0.65;0.65;;;14.00;52.80;;;12.95;51.85;101830.00;12247161;19;20078;-84
2023/01/03 00:40:33;;;;;;;0.80;0.75;;;14.00;52.90;;;13.06;51.79;101853.94;12247271;19;20026;-84
2023/01/03 00:44:34;;;;;;;1.00;0.90;;;14.00;52.90;;;13.01;51.88;101842.81;12247564;19;20030;-84
2023/01/03 00:48:37;;;;;;;0.70;0.70;;;14.00;52.90;;;13.01;51.89;101850.69;12246682;19;20014;-84
2023/01/03 00:52:38;;;;;;;0.68;0.60;;;14.00;52.90;;;12.99;51.90;101855.19;12248741;19;20010;-84
2023/01/03 00:56:45;;;;;;;0.50;0.50;;;14.00;52.90;;;13.05;52.01;101865.38;12249018;19;20015;-84
2023/01/03 01:00:47;;;;;;;0.77;0.77;;;14.00;52.90;;;12.90;51.93;101850.34;12249262;19;20006;-84
2023/01/03 01:04:51;;;;;;;0.95;0.88;;;14.00;52.90;;;12.90;51.88;101866.94;12244446;19;20018;-84
2023/01/03 01:08:55;;;;;;;1.20;0.90;;;13.90;52.80;;;12.88;51.97;101879.28;12254048;19;20014;-83
2023/01/03 01:12:57;;;;;;;0.87;0.87;;;13.90;52.90;;;12.86;51.97;101891.59;12259227;19;20025;-83
2023/01/03 01:17:07;;;;;;;1.38;0.70;;;13.90;52.80;;;12.93;51.97;101913.97;12256453;19;20250;-83
2023/01/03 01:21:14;;;;;;;2.03;0.95;;;13.90;52.80;;;12.86;52.08;101909.94;12260489;19;20015;-84
2023/01/03 01:25:16;;;;;;;1.20;0.80;;;13.80;52.70;;;12.68;52.14;101906.38;12253888;19;20011;-84
2023/01/03 01:29:19;;;;;;;1.10;0.70;;;13.70;52.60;;;12.76;52.08;101933.09;12254140;19;20019;-84
2023/01/03 01:33:21;;;;;;;1.20;0.80;;;13.70;52.60;;;12.68;52.14;101935.22;12261695;19;20018;-84
2023/01/03 01:37:24;;;;;;;1.20;0.85;;;13.70;52.50;;;12.33;52.09;101898.31;12266845;19;20021;-84
2023/01/03 01:45:49;;;;;;;1.60;0.80;;;13.60;52.50;;;12.54;52.21;101958.56;12258559;19;20074;-85
2023/01/03 01:49:59;;;;;;;1.33;0.80;;;13.50;52.50;;;12.53;52.17;101972.56;12257461;19;20662;-84
2023/01/03 01:54:05;;;;;;;0.77;0.77;;;13.50;52.50;;;12.44;51.90;101965.97;12255208;19;20047;-84
2023/01/03 01:58:08;;;;;;;1.60;0.80;;;13.40;52.40;;;12.40;52.03;101980.97;12258320;19;20035;-83
2023/01/03 02:02:12;;;;;;;0.77;0.77;;;13.40;52.40;;;12.32;52.06;101964.72;12262098;19;20002;-85
2023/01/03 02:06:15;;;;;;;1.17;1.08;;;13.40;52.40;;;12.20;52.02;101951.28;12263409;19;20461;-85
2023/01/03 02:10:27;;;;;;;1.00;0.90;;;13.30;52.30;;;12.20;51.91;101964.38;12257951;19;20030;-84
2023/01/03 02:15:06;;;;;;;1.55;0.73;;;13.30;52.10;;;12.22;52.08;101989.59;12252458;19;20118;-84
2023/01/03 02:19:55;;;;;;;0.60;0.60;;;13.20;52.10;;;12.17;52.05;101987.16;12254517;19;20056;-84
2023/01/03 02:24:37;;;;;;;0.60;0.60;;;13.10;52.10;;;12.08;52.00;102005.88;12256621;19;20006;-83
2023/01/03 02:29:39;;;;;;;0.98;0.60;;;13.10;52.00;;;12.03;52.08;102015.69;12252282;19;20003;-83
2023/01/03 02:34:05;;;;;;;0.93;0.80;;;13.00;51.90;;;11.95;51.98;102021.22;12250816;19;20014;-83
2023/01/03 02:38:33;;;;;;;1.55;0.70;;;13.00;51.80;;;11.89;52.08;102018.03;12259021;19;20343;-84
2023/01/03 02:43:07;;;;;;;0.88;0.80;;;12.90;51.70;;;11.78;52.16;102020.19;12255689;19;20369;-84
2023/01/03 02:47:13;;;;;;;0.55;0.55;;;12.90;51.70;;;11.80;51.91;102037.53;12255139;19;20007;-84
2023/01/03 02:51:40;;;;;;;0.80;0.73;;;12.80;51.60;;;11.73;52.09;102038.66;12255940;19;20013;-84
2023/01/03 02:55:43;;;;;;;0.60;0.60;;;12.80;51.50;;;11.68;52.00;102028.38;12253865;19;20010;-83
2023/01/03 02:59:53;;;;;;;0.82;0.60;;;12.70;51.50;;;11.50;51.85;102010.75;12248607;19;20018;-84
2023/01/03 03:03:56;;;;;;;0.63;0.63;;;12.70;51.40;;;11.41;51.84;102006.75;12250789;19;20060;-84
2023/01/03 03:07:58;;;;;;;0.70;0.70;;;12.70;51.40;;;11.63;51.99;102043.41;12250996;19;20316;-84
2023/01/03 03:16:46;;;;;;;0.70;0.70;;;12.60;51.30;;;11.48;51.75;102057.94;12252165;19;20010;-84
2023/01/03 03:25:36;;;;;;;2.50;0.70;;;12.50;51.10;;;11.37;51.67;102061.84;12250676;19;20019;-83
2023/01/03 03:29:39;;;;;;;0.68;0.60;;;12.40;51.10;;;11.36;52.00;102071.44;12251767;19;20011;-83
2023/01/03 03:33:59;;;;;;;0.88;0.65;;;12.40;51.10;;;11.30;51.68;102087.38;12249541;19;20073;-84
2023/01/03 03:38:04;;;;;;;1.25;0.68;;;12.30;51.10;;;11.26;51.88;102093.59;12253236;19;20438;-84
2023/01/03 03:46:43;;;;;;;1.35;0.73;;;12.20;51.20;;;11.10;51.84;102079.38;12250076;19;20043;-83
2023/01/03 03:50:56;;;;;;;0.47;0.47;;;12.20;51.20;;;11.13;51.77;102084.53;12250034;19;20018;-84
2023/01/03 03:55:18;;;;;;;1.25;0.70;;;12.20;51.20;;;10.93;51.90;102070.38;12247620;19;20039;-83
2023/01/03 03:59:22;;;;;;;1.27;0.68;;;12.10;51.20;;;10.95;51.80;102076.41;12249079;19;20035;-83
2023/01/03 04:03:25;;;;;;;1.33;0.75;;;12.10;51.30;;;10.93;51.60;102078.22;12244508;19;20601;-83
2023/01/03 04:07:28;;;;;;;1.45;0.80;;;12.00;51.30;;;10.92;51.79;102093.97;12246871;19;20015;-84
2023/01/03 04:11:30;;;;;;;0.65;0.65;;;12.00;51.30;;;10.69;51.97;102073.84;12247058;19;20006;-84
2023/01/03 04:15:32;;;;;;;1.05;0.80;;;12.00;51.40;;;10.89;51.87;102108.00;12250289;19;20019;-84
2023/01/03 04:19:34;;;;;;;0.80;0.80;;;11.90;51.40;;;10.91;51.74;102124.47;12248003;19;20064;-84
2023/01/03 04:23:36;;;;;;;0.73;0.73;;;11.90;51.50;;;10.88;51.80;102127.16;12244372;19;20039;-84
2023/01/03 04:27:37;;;;;;;0.70;0.70;;;11.90;51.60;;;10.89;51.83;102136.75;12246173;19;20095;-84
2023/01/03 04:31:39;;;;;;;2.30;0.90;;;11.90;51.60;;;10.91;51.81;102158.44;12248807;19;20359;-83
2023/01/03 04:35:41;;;;;;;3.15;0.70;;;11.90;51.70;;;10.80;51.68;102139.63;12247815;19;20469;-84
2023/01/03 04:39:43;;;;;;;1.05;0.57;;;11.80;51.70;;;10.81;51.89;102162.28;12248345;19;20014;-84
2023/01/03 04:44:00;;;;;;;2.50;0.80;;;11.80;51.70;;;10.83;51.91;102171.78;12253508;19;20490;-84
2023/01/03 04:48:02;;;;;;;0.70;0.70;;;11.80;51.70;;;10.74;51.73;102176.44;12258921;19;20056;-84
2023/01/03 04:52:04;;;;;;;0.70;0.70;;;11.80;51.80;;;10.60;51.99;102141.16;12258151;19;20026;-84
2023/01/03 04:56:06;;;;;;;2.80;0.90;;;11.80;51.70;;;10.73;52.12;102179.97;12259971;19;20509;-84
2023/01/03 05:00:09;;;;;;;0.90;0.70;;;11.70;51.70;;;10.65;51.93;102181.97;12258504;19;20029;-84
2023/01/03 05:04:11;;;;;;;1.23;1.00;;;11.70;51.70;;;10.61;51.99;102187.28;12258204;19;20007;-83
2023/01/03 05:08:12;;;;;;;0.90;0.90;;;11.70;51.70;;;10.38;51.97;102145.38;12258655;19;20014;-84
2023/01/03 05:12:14;;;;;;;1.10;0.95;;;11.60;51.60;;;10.55;51.94;102181.38;12257971;19;20010;-83
2023/01/03 05:16:16;;;;;;;1.55;0.93;;;11.80;51.80;;;10.34;51.81;102164.63;12260581;19;20021;-84
2023/01/03 05:29:00;;;;;;;1.60;1.35;;;11.40;51.70;;;10.21;52.00;102185.03;12256349;19;20014;-84
2023/01/03 05:33:02;;;;;;;4.28;2.10;;;11.40;51.80;;;10.35;52.11;102218.59;12253801;19;20037;-84
2023/01/03 05:37:04;;;;;;;2.28;1.60;;;11.30;51.80;;;10.30;52.11;102210.88;12256059;19;20029;-84
2023/01/03 05:41:05;;;;;;;2.25;1.50;;;11.30;51.90;;;10.31;51.95;102209.13;12258801;19;20019;-83
2023/01/03 05:45:08;;;;;;;1.67;1.25;;;11.30;51.90;;;10.31;51.96;102220.41;12254838;19;20022;-84
2023/01/03 05:49:10;;;;;;;1.55;0.98;;;11.30;51.90;;;10.33;52.06;102229.06;12252834;19;20082;-83
2023/01/03 05:53:12;;;;;;;2.08;1.20;;;11.30;51.90;;;10.03;51.96;102180.34;12252785;19;20014;-84
2023/01/03 05:57:14;;;;;;;1.48;0.98;;;11.30;51.90;;;10.27;51.91;102233.59;12256490;19;20019;-83
2023/01/03 06:01:16;;;;;;;3.95;1.02;;;11.20;51.80;;;10.05;51.99;102204.66;12254599;19;20024;-83
2023/01/03 06:05:18;;;;;;;1.00;1.00;;;11.20;51.90;;;10.15;52.10;102240.88;12254383;19;20363;-84
2023/01/03 06:09:20;;;;;;;1.45;0.90;;;11.20;52.00;;;10.14;52.10;102249.59;12258301;19;20022;-84
2023/01/03 06:13:22;;;;;;;3.50;1.10;;;11.10;51.90;;;10.10;52.16;102253.22;12253671;19;20497;-83
2023/01/03 06:21:44;;;;;;;2.17;1.02;;;11.10;52.00;;;9.90;52.09;102242.47;12254181;19;20010;-83
2023/01/03 06:25:46;;;;;;;1.35;1.15;;;11.00;52.00;;;9.90;52.09;102250.28;12255694;19;20007;-83
2023/01/03 06:29:48;;;;;;;2.42;1.42;;;11.00;52.00;;;9.92;51.99;102265.00;12255289;19;20492;-84
2023/01/03 06:33:49;;;;;;;3.55;1.60;;;10.90;52.00;;;9.85;52.23;102262.59;12253000;19;20507;-83
2023/01/03 06:37:51;;;;;;;1.90;1.50;;;10.90;52.10;;;9.75;52.19;102267.25;12254940;19;20010;-83
2023/01/03 06:41:53;;;;;;;3.28;1.83;;;10.90;52.20;;;9.78;52.12;102274.97;12251603;19;20088;-84
2023/01/03 06:54:38;;;;;;;2.33;1.45;;;10.80;52.20;;;9.57;52.17;102279.00;12255939;19;20018;-84
2023/01/03 06:58:40;;;;;;;2.45;1.40;;;10.70;52.20;;;9.66;52.31;102297.00;12259675;19;20006;-84
2023/01/03 07:02:42;;;;;;;2.40;1.38;;;10.70;52.30;;;9.30;52.16;102252.72;12252072;19;20014;-84
2023/01/03 07:06:44;;;;;;;3.00;1.73;;;10.60;52.30;;;9.45;52.18;102284.53;12254808;19;20365;-83
2023/01/03 07:10:46;;;;;;;1.88;1.45;;;10.60;52.30;;;9.42;52.23;102287.22;12253014;19;20026;-84
2023/01/03 07:14:48;;;;;;;2.47;1.70;;;10.60;52.30;;;9.19;52.28;102257.38;12250740;19;20007;-84
2023/01/03 07:18:50;;;;;;;1.75;1.40;;;10.60;52.30;;;9.46;52.20;102318.38;12253341;19;20049;-83
2023/01/03 07:22:52;;;;;;;2.38;1.45;;;10.50;52.30;;;9.40;52.24;102307.28;12254955;19;20015;-84
2023/01/03 07:27:00;;;;;;;2.35;1.83;;;10.50;52.30;;;9.09;52.36;102271.50;12258719;19;20006;-84
2023/01/03 07:31:06;;;;;;;2.20;1.90;;;10.50;52.30;;;8.90;52.30;102250.25;12258589;19;20110;-84
2023/01/03 07:35:09;;;;;;;4.03;1.88;;;10.40;52.70;;;9.31;52.37;102337.84;12258549;19;20020;-84
2023/01/03 07:39:11;;;;;;;5.30;2.38;;;10.40;52.30;;;9.22;52.40;102326.81;12249262;19;20485;-84
2023/01/03 07:47:32;;;;;;;3.22;2.92;;;10.30;52.40;;;9.22;52.41;102340.69;12248535;19;20018;-82
2023/01/03 07:51:34;;;;;;;3.45;3.15;;;10.30;52.50;;;9.12;52.55;102330.53;12254771;19;20022;-84
2023/01/03 07:55:36;;;;;;;2.63;1.95;;;10.20;52.40;;;9.16;52.52;102340.84;12259698;19;20009;-83
2023/01/03 07:59:38;;;;;;;1.70;1.60;;;10.20;52.50;;;9.16;52.56;102351.28;12250933;19;20022;-85
2023/01/03 08:03:41;;;;;;;2.25;1.77;;;10.20;52.50;;;9.09;52.63;102350.53;12252588;19;20006;-85
2023/01/03 08:07:43;;;;;;;1.95;1.42;;;10.20;52.50;;;9.11;52.40;102362.69;12250815;19;20010;-84
2023/01/03 08:16:10;;;;;;;2.72;1.60;;;10.10;52.60;;;9.03;52.45;102378.50;12251641;19;20018;-84
2023/01/03 08:20:12;;;;;;;2.55;1.38;;;10.10;52.60;;;9.01;52.62;102373.31;12253285;19;20358;-84
2023/01/03 08:24:13;;;;;;;1.75;1.33;;;10.10;52.70;;;8.64;52.47;102322.03;12250143;19;20011;-84
2023/01/03 08:28:16;;;;;;;1.88;1.30;;;10.10;52.70;;;9.04;52.59;102388.03;12251733;19;20544;-84
2023/01/03 08:32:20;;;;;;;2.75;1.60;;;10.10;52.70;;;8.99;52.60;102385.53;12249895;19;20026;-84
2023/01/03 08:36:25;;;;;;;1.92;1.48;;;10.10;52.70;;;8.91;52.71;102374.44;12249869;19;20014;-83
2023/01/03 08:40:29;;;;;;;2.97;1.95;;;10.10;52.70;;;8.97;52.49;102391.66;12247400;19;20007;-84
2023/01/03 08:44:31;;;;;;;1.65;1.55;;;10.10;52.70;;;8.94;52.92;102386.50;12245218;19;20019;-83
2023/01/03 08:48:33;;;;;;;1.88;1.52;;;10.10;52.80;;;9.04;52.65;102404.50;12246581;19;20820;-84
2023/01/03 08:52:35;;;;;;;2.50;1.95;;;10.30;52.80;;;9.04;52.83;102406.25;12245586;19;20035;-83
2023/01/03 08:56:40;;;;;;;2.47;1.50;;;10.10;52.80;;;9.03;52.85;102407.16;12253420;19;20460;-85
2023/01/03 09:00:42;;;;;;;1.60;1.50;;;10.10;52.80;;;8.74;52.88;102364.34;12248223;19;20018;-83
2023/01/03 09:04:43;;;;;;;1.23;1.13;;;10.10;52.80;;;9.01;52.82;102414.16;12241953;19;20035;-83
2023/01/03 09:08:45;;;;;;;1.42;1.33;;;10.10;52.90;;;8.96;52.95;102419.44;12243505;19;20002;-83
2023/01/03 09:12:47;;;;;;;2.50;1.38;;;10.30;53.00;;;8.97;52.76;102417.72;12243407;19;20021;-83
2023/01/03 09:16:49;;;;;;;2.10;1.23;;;10.10;52.90;;;8.71;52.97;102384.41;12247263;19;20018;-83
2023/01/03 09:20:51;;;;;;;4.53;1.58;;;10.10;53.00;;;8.90;53.08;102421.34;12247837;19;20078;-84
2023/01/03 09:24:54;;;;;;;1.40;1.30;;;10.30;53.10;;;8.79;53.07;102409.38;12243224;19;20023;-83
2023/01/03 09:28:55;;;;;;;3.72;2.53;;;10.10;53.10;;;8.96;53.12;102439.44;12247163;19;20380;-83
2023/01/03 09:32:57;;;;;;;1.95;1.20;;;10.10;53.10;;;8.89;53.07;102417.88;12257709;19;20377;-83
2023/01/03 09:36:59;;;;;;;1.13;1.05;;;10.10;53.00;;;8.69;53.05;102386.16;12255786;19;20018;-83
2023/01/03 09:41:06;;;;;;;3.22;1.48;;;10.10;53.00;;;8.45;53.02;102351.06;12255569;19;20432;-83
2023/01/03 09:45:26;;;;;;;1.30;1.20;;;10.10;53.00;;;9.01;53.19;102438.44;12249188;19;20473;-83
2023/01/03 09:49:27;;;;;;;2.05;1.33;;;10.20;53.00;;;9.06;53.26;102440.97;12253451;19;20066;-83
2023/01/03 10:08:00;;;;;;;1.20;1.10;;;10.30;53.40;;;9.18;53.13;102440.72;12254241;19;20026;-84
2023/01/03 10:12:26;;;;;;;2.13;0.90;;;10.30;53.00;;;9.16;53.48;102434.69;12257522;19;20484;-84
2023/01/03 10:16:59;;;;;;;1.58;0.93;;;10.40;53.00;;;9.30;53.28;102436.97;12251578;19;20015;-84
2023/01/03 10:21:45;;;;;;;1.15;1.05;;;10.40;53.00;;;9.37;53.38;102437.69;12260459;19;20039;-83
2023/01/03 10:25:47;;;;;;;1.23;1.10;;;10.50;52.90;;;9.25;53.36;102387.53;12255024;19;20090;-84
2023/01/03 10:29:54;;;;;;;1.10;1.00;;;10.60;52.80;;;9.46;53.16;102422.69;12252671;19;20118;-83
2023/01/03 10:33:56;;;;;;;1.70;1.58;;;10.60;52.80;;;9.40;53.22;102401.97;12256825;19;20003;-82
2023/01/03 10:37:59;;;;;;;2.15;1.48;;;10.60;52.70;;;9.52;53.25;102413.88;12258354;19;20031;-83
2023/01/03 10:42:04;;;;;;;2.90;1.58;;;10.70;52.70;;;9.48;53.35;102400.06;12256742;19;20011;-83
2023/01/03 10:46:20;;;;;;;1.80;1.70;;;10.80;52.70;;;9.51;53.39;102399.97;12259833;19;20033;-83
2023/01/03 10:50:23;;;;;;;3.30;1.58;;;10.90;52.70;;;9.48;53.24;102387.00;12258766;19;20469;-83
2023/01/03 10:55:02;;;;;;;1.27;1.20;;;10.90;52.70;;;9.80;53.35;102431.47;12253556;19;20440;-83
2023/01/03 10:59:24;;;;;;;1.80;1.40;;;11.00;52.70;;;9.71;53.45;102406.47;12254714;19;20014;-83
2023/01/03 11:03:27;;;;;;;2.00;1.40;;;11.10;52.70;;;9.81;53.43;102417.53;12250890;19;20022;-83
2023/01/03 11:07:28;;;;;;;1.63;1.52;;;11.10;52.60;;;9.94;53.17;102429.38;12252153;19;20177;-83
2023/01/03 11:11:35;;;;;;;2.40;1.35;;;11.10;52.60;;;9.97;53.37;102434.53;12262218;19;20010;-84
2023/01/03 11:15:38;;;;;;;1.27;1.10;;;11.20;52.60;;;9.80;53.27;102389.72;12265453;19;20010;-83
2023/01/03 11:19:40;;;;;;;2.53;1.23;;;11.20;52.60;;;10.02;53.07;102422.22;12259087;19;20021;-83
2023/01/03 11:23:57;;;;;;;2.55;1.48;;;11.30;52.50;;;10.15;53.34;102430.56;12257012;19;20015;-84
2023/01/03 11:27:59;;;;;;;2.03;1.42;;;11.40;52.40;;;10.19;53.30;102424.38;12257299;19;20014;-83
2023/01/03 11:32:22;;;;;;;2.17;1.40;;;11.60;52.40;;;10.17;53.29;102432.25;12258318;19;20019;-83
2023/01/03 11:37:08;;;;;;;4.00;1.70;;;11.40;52.20;;;10.12;53.16;102417.59;12257984;19;20035;-83
2023/01/03 11:41:58;;;;;;;2.53;1.67;;;11.40;52.20;;;9.58;53.06;102325.03;12251528;19;20010;-83
2023/01/03 11:46:37;;;;;;;2.67;1.92;;;11.40;52.10;;;10.11;53.14;102431.56;12253774;19;20018;-83
2023/01/03 11:50:57;;;;;;;1.83;1.70;;;11.40;52.10;;;10.10;53.25;102427.22;12255496;19;20036;-83
2023/01/03 11:55:44;;;;;;;4.00;1.60;;;11.40;52.20;;;10.10;53.23;102435.94;12253094;19;20007;-85
2023/01/03 11:59:45;;;;;;;;;;;11.40;52.30;;;10.08;53.30;102435.09;12254711;19;20014;-83
2023/01/03 12:04:49;;;;;;;1.65;1.55;;;11.30;52.20;;;10.08;53.33;102434.25;12251387;19;19914;-83
2023/01/03 12:08:57;;;;;;;2.97;2.05;;;11.30;52.30;;;10.08;53.32;102422.06;12247128;19;20047;-82
2023/01/03 12:13:13;;;;;;;2.42;1.83;;;11.30;52.30;;;10.13;53.31;102419.34;12251766;19;20070;-83
2023/01/03 12:18:03;;;;;;;4.50;2.47;;;11.30;52.40;;;10.10;53.35;102420.25;12251958;19;20022;-82
2023/01/03 12:22:32;;;;;;;2.28;2.08;;;11.30;52.50;;;10.12;53.35;102418.44;12249896;19;20007;-83
2023/01/03 12:26:38;;;;;;;3.42;2.28;;;11.30;52.50;;;10.12;53.34;102412.38;12252556;19;20027;-83
2023/01/03 12:31:16;;;;;;;;;;;11.30;52.50;;;10.06;53.16;102405.56;12251804;19;20018;-83
2023/01/03 12:35:45;;;;;;;5.10;2.35;;;11.40;52.40;;;10.07;53.19;102417.75;12247076;19;19940;-83
2023/01/03 12:40:01;;;;;;;2.75;2.20;;;11.40;52.30;;;10.03;53.13;102410.03;12249626;19;20006;-84
2023/01/03 12:44:23;;;;;;;2.47;2.28;;;11.30;52.20;;;9.95;53.08;102400.63;12244614;19;20011;-83
2023/01/03 12:48:57;;;;;;;3.20;2.40;;;11.30;52.10;;;10.01;53.08;102415.25;12248698;19;20014;-83
2023/01/03 12:53:14;;;;;;;2.40;1.98;;;11.30;52.20;;;10.09;53.25;102423.75;12246073;19;20022;-84
2023/01/03 12:58:03;;;;;;;5.03;2.38;;;11.30;52.20;;;10.02;53.16;102411.78;12253297;19;20010;-82
2023/01/03 13:02:36;;;;;;;2.60;2.40;;;11.30;52.20;;;10.10;53.14;102407.22;12248926;19;20019;-84
2023/01/03 13:06:45;;;;;;;2.45;2.25;;;11.30;52.20;;;10.00;53.23;102391.84;12261734;19;20024;-81
2023/01/03 13:10:51;;;;;;;3.83;2.30;;;11.30;52.20;;;10.03;53.03;102399.59;12259704;19;20488;-82
2023/01/03 13:15:02;;;;;;;7.03;3.08;;;11.30;52.20;;;10.13;53.20;102412.34;12258550;19;20003;-83
2023/01/03 13:19:22;;;;;;;3.45;2.55;;;11.30;52.20;;;10.14;53.04;102406.22;12262775;19;20035;-81
2023/01/03 13:23:35;;;;;;;3.25;2.55;;;11.30;52.20;;;10.16;53.02;102409.66;12258159;19;20178;-82
2023/01/03 13:27:46;;;;;;;3.03;1.88;;;11.30;52.20;;;9.93;53.07;102375.47;12254899;19;20022;-84
2023/01/03 13:32:23;;;;;;;2.05;1.88;;;11.30;52.10;;;10.18;53.22;102410.47;12259162;19;20048;-85
2023/01/03 13:36:24;;;;;;;;;;;11.30;52.10;;;9.83;52.95;102345.28;12261761;19;20082;-82
2023/01/03 13:40:32;;;;;;;2.75;1.73;;;11.40;52.20;;;10.16;53.14;102387.91;12262634;19;20270;-83
2023/01/03 13:44:34;;;;;;;3.53;2.17;;;11.40;52.00;;;10.24;52.96;102404.25;12255524;19;20050;-82
2023/01/03 13:48:40;;;;;;;3.15;2.50;;;11.40;51.90;;;10.24;52.84;102400.78;12258769;19;20015;-82
2023/01/03 13:53:36;;;;;;;4.13;2.25;;;11.40;51.70;;;10.19;53.02;102408.72;12262693;19;20394;-83
2023/01/03 13:57:52;;;;;;;2.75;2.50;;;11.30;51.60;;;10.15;52.94;102400.13;12262530;19;20335;-83
2023/01/03 14:02:07;;;;;;;3.25;1.90;;;11.40;51.70;;;10.17;52.96;102405.28;12260777;19;20002;-83
2023/01/03 14:07:14;;;;;;;3.83;2.10;;;11.30;51.60;;;10.16;52.95;102404.44;12263628;19;20014;-82
2023/01/03 14:12:02;;;;;;;2.08;1.98;;;11.30;51.60;;;9.97;52.87;102379.72;12256450;19;20010;-82
2023/01/03 14:16:25;;;;;;;2.05;1.80;;;11.30;51.50;;;10.16;52.84;102417.50;12257409;19;20014;-82
2023/01/03 14:20:33;;;;;;;2.58;2.08;;;11.30;51.50;;;10.08;52.83;102403.78;12258943;19;20107;-82
2023/01/03 14:24:35;;;;;;;1.73;1.63;;;11.30;51.60;;;10.17;52.94;102416.56;12252796;19;20019;-83
2023/01/03 14:28:37;;;;;;;2.13;1.95;;;11.30;51.60;;;10.07;52.90;102404.69;12252564;19;20029;-82
2023/01/03 14:32:39;;;;;;;2.88;2.17;;;11.30;51.50;;;10.13;52.75;102416.72;12254322;19;20037;-82
2023/01/03 14:36:47;;;;;;;2.50;2.03;;;11.30;51.50;;;10.03;52.78;102416.09;12253120;19;20098;-83
2023/01/03 14:40:50;;;;;;;3.65;2.28;;;11.20;51.50;;;10.09;52.84;102431.59;12255857;19;20010;-82
2023/01/03 14:45:05;;;;;;;3.20;2.80;;;11.20;51.50;;;10.05;52.75;102434.34;12251074;19;20038;-84
2023/01/03 14:49:56;;;;;;;5.05;3.78;;;11.20;51.50;;;9.72;52.78;102376.84;12253872;19;20031;-82
2023/01/03 14:53:59;;;;;;;2.88;2.65;;;11.10;51.50;;;10.03;52.81;102431.75;12252891;19;20349;-82
2023/01/03 14:58:41;;;;;;;2.58;2.38;;;11.20;51.50;;;9.97;52.91;102430.16;12259624;19;20010;-83
2023/01/03 15:02:45;;;;;;;3.92;2.78;;;11.10;51.50;;;9.94;52.91;102424.16;12253511;19;20025;-82
2023/01/03 15:07:24;;;;;;;4.25;3.25;;;11.10;51.50;;;9.49;52.77;102374.81;12260525;19;20007;-82
2023/01/03 15:11:59;;;;;;;4.32;2.83;;;11.10;51.60;;;9.62;52.73;102397.13;12267459;19;20006;-85
2023/01/03 15:16:53;;;;;;;3.00;2.38;;;11.10;51.50;;;9.46;52.59;102365.31;12263697;19;20011;-85
2023/01/03 15:21:22;;;;;;;2.45;2.22;;;11.00;51.40;;;9.69;52.63;102416.94;12256401;19;20025;-83
2023/01/03 15:25:39;;;;;;;2.40;2.20;;;11.00;51.40;;;9.70;52.63;102430.84;12247789;19;20027;-84
2023/01/03 15:29:44;;;;;;;1.98;1.80;;;10.90;51.30;;;9.73;52.54;102446.41;12251843;19;20033;-84
2023/01/03 15:34:11;;;;;;;6.35;3.05;;;10.90;51.40;;;9.64;52.72;102446.63;12250697;19;20026;-84
2023/01/03 15:38:31;;;;;;;4.53;2.55;;;10.80;51.40;;;9.59;52.52;102451.13;12254304;19;20015;-84
2023/01/03 15:47:05;;;;;;;5.90;4.00;;;10.60;51.40;;;9.37;52.68;102459.41;12249659;19;20102;-84
2023/01/03 15:51:33;;;;;;;4.80;3.55;;;10.60;51.40;;;8.96;52.44;102411.63;12258813;19;20007;-84
2023/01/03 15:55:45;;;;;;;8.95;4.28;;;10.50;51.30;;;9.13;52.62;102431.25;12265224;19;20053;-85
2023/01/03 16:00:50;;;;;;;;;;;;;;;;;;;;;
2023/01/03 16:04:56;;;;;;;7.07;4.13;;;10.50;51.60;;;9.06;52.37;102438.34;12263659;19;20108;-83
2023/01/03 16:08:58;;;;;;;7.90;4.18;;;10.20;51.30;;;8.78;52.38;102405.06;12260693;19;20022;-85
2023/01/03 16:13:02;;;;;;;6.50;3.17;;;10.20;51.40;;;9.07;52.58;102471.34;12257935;19;20014;-85
2023/01/03 16:17:07;;;;;;;4.15;2.70;;;10.10;51.40;;;8.94;52.52;102462.06;12256108;19;20014;-84
2023/01/03 16:21:09;;;;;;;4.13;2.70;;;10.10;51.30;;;8.62;52.50;102417.53;12256396;19;20002;-83
2023/01/03 16:25:14;;;;;;;2.45;2.20;;;10.00;51.30;;;8.79;52.31;102461.47;12252616;19;20007;-84
2023/01/03 16:29:16;;;;;;;2.42;2.22;;;9.90;51.30;;;8.64;52.42;102457.44;12253272;19;20062;-84
2023/01/03 16:33:19;;;;;;;3.28;2.97;;;9.80;51.40;;;8.62;52.54;102466.16;12254694;19;20357;-84
2023/01/03 16:37:21;;;;;;;2.88;2.67;;;9.70;51.40;;;8.55;52.60;102467.16;12252811;19;20070;-83
2023/01/03 16:41:22;;;;;;;4.63;3.33;;;9.70;51.40;;;8.46;52.49;102473.41;12267627;19;20018;-83
2023/01/03 16:45:24;;;;;;;8.73;3.50;;;9.50;51.40;;;8.35;52.56;102470.09;12260966;19;20368;-83
2023/01/03 16:49:28;;;;;;;4.40;3.65;;;9.50;51.40;;;8.31;52.55;102478.84;12263413;19;20031;-83
2023/01/03 16:53:36;;;;;;;4.63;4.20;;;9.40;51.50;;;8.22;52.39;102474.66;12263358;19;20014;-84
2023/01/03 16:57:38;;;;;;;5.05;3.03;;;9.30;51.40;;;8.16;52.45;102480.84;12262864;19;20282;-83
2023/01/03 17:01:40;;;;;;;3.33;3.03;;;9.30;51.30;;;8.10;52.46;102490.47;12262520;19;20018;-82
2023/01/03 17:05:42;;;;;;;6.68;3.00;;;9.20;51.30;;;8.02;52.60;102489.72;12264185;19;20018;-83
2023/01/03 17:09:46;;;;;;;4.32;2.80;;;9.10;51.30;;;7.74;52.56;102457.22;12261696;19;20025;-83
2023/01/03 17:13:48;;;;;;;4.00;3.60;;;9.00;51.30;;;7.86;52.34;102487.41;12260017;19;20082;-83
2023/01/03 17:17:50;;;;;;;5.20;3.35;;;8.90;51.30;;;7.69;52.45;102484.16;12259141;19;20350;-83
2023/01/03 17:21:53;;;;;;;3.30;2.92;;;8.80;51.20;;;7.63;52.49;102486.88;12256702;19;20031;-83
2023/01/03 17:25:55;;;;;;;3.42;2.67;;;8.70;51.10;;;7.52;52.45;102487.88;12258169;19;20018;-84
2023/01/03 17:30:04;;;;;;;2.90;2.70;;;8.80;51.30;;;7.49;52.47;102490.53;12257352;19;20018;-84
2023/01/03 17:34:29;;;;;;;3.17;2.25;;;8.60;51.30;;;7.42;52.39;102491.47;12255302;19;20039;-83
2023/01/03 17:38:32;;;;;;;3.50;2.65;;;8.50;51.30;;;7.30;52.40;102481.25;12260892;19;20043;-83
2023/01/03 17:42:33;;;;;;;4.00;3.08;;;8.40;51.30;;;7.28;52.39;102496.00;12254994;19;20018;-84
2023/01/03 17:50:56;;;;;;;6.47;4.20;;;8.30;51.30;;;7.02;52.57;102489.41;12262444;19;20377;-83
2023/01/03 17:54:58;;;;;;;6.10;3.40;;;8.20;51.40;;;7.00;52.37;102498.94;12257828;19;20026;-84
2023/01/03 17:58:59;;;;;;;3.33;3.08;;;8.10;51.30;;;6.87;52.60;102474.84;12257482;19;20010;-84
2023/01/03 18:03:01;;;;;;;7.28;5.03;;;8.10;51.40;;;6.90;52.57;102486.94;12255481;19;20086;-83
2023/01/03 18:07:02;;;;;;;22.42;11.15;;;8.00;51.50;;;6.90;52.66;102492.13;12258142;19;20499;-82
2023/01/03 18:11:06;;;;;;;17.42;8.70;;;8.00;51.50;;;6.87;52.46;102494.78;12257050;19;20025;-82
2023/01/03 18:15:18;;;;;;;10.85;7.72;;;7.90;51.50;;;6.78;52.50;102500.94;12251085;19;20035;-83
2023/01/03 18:19:20;;;;;;;12.02;7.38;;;7.90;51.50;;;6.77;52.46;102491.41;12258432;19;20010;-83
2023/01/03 18:23:30;;;;;;;14.70;8.60;;;7.80;51.40;;;6.59;52.54;102465.66;12256891;19;20023;-83
2023/01/03 18:27:32;;;;;;;10.77;6.88;;;7.80;51.50;;;6.66;52.56;102477.69;12254766;19;20018;-83
2023/01/03 18:31:34;;;;;;;9.45;5.55;;;8.10;51.60;;;6.55;52.60;102470.00;12259951;19;20070;-83
2023/01/03 18:35:35;;;;;;;4.35;3.88;;;7.70;51.50;;;6.48;52.58;102468.38;12260194;19;20375;-84
2023/01/03 18:39:38;;;;;;;4.28;3.88;;;7.60;51.40;;;6.35;52.66;102462.44;12259004;19;20472;-83